Terminal Aerodrome Forecast
Issued by NWS Tampa Bay Area, FL

Home | Current Version | Previous Version | Text Only | Print | Product List | Glossary On
Versions: 1 2 3 4 5 6 7 8 9 10 11 12 13 14 15 16 17 18
000
FTUS42 KTBW 240500
TAFFMY
TAF
KFMY 240531Z 2406/2506 00000KT P6SM SKC
     FM241400 18005KT P6SM SCT025
     FM241800 23007KT P6SM VCTS SCT045CB SCT250
     FM250000 21003KT P6SM FEW035 SCT250=

USA.gov is the U.S. government's official web portal to all federal, state and local government web resources and services.